createdAt,value
2018-10-12T00:17:27.949Z,98395.81
2018-10-12T00:38:05.376Z,98432.09
2018-10-12T00:58:43.415Z,98427.94
2018-10-12T01:19:28.817Z,98448.09
2018-10-12T01:40:09.929Z,98463.31
2018-10-12T02:00:51.348Z,98468.51
2018-10-12T02:21:33.921Z,98492.97
2018-10-12T02:42:16.222Z,98483.68
2018-10-12T03:02:56.211Z,98498.00
2018-10-12T03:23:35.476Z,98527.92
2018-10-12T03:44:10.747Z,98560.20
2018-10-12T04:04:53.097Z,98570.45
2018-10-12T04:25:32.352Z,98615.06
2018-10-12T04:46:10.386Z,98611.66
2018-10-12T05:06:50.880Z,98652.90
2018-10-12T05:27:33.226Z,98684.15
2018-10-12T05:48:23.544Z,98710.88
2018-10-12T06:09:06.805Z,98729.44
2018-10-12T06:29:46.074Z,98740.75
2018-10-12T06:50:24.718Z,98770.12
2018-10-12T07:11:05.526Z,98781.45
2018-10-12T07:31:46.025Z,98797.05
2018-10-12T07:52:30.525Z,98800.95
2018-10-12T08:13:08.545Z,98813.13
2018-10-12T08:33:49.967Z,98809.65
2018-10-12T08:54:32.385Z,98816.28
2018-10-12T09:15:10.336Z,98811.93
2018-10-12T09:35:49.603Z,98820.45
2018-10-12T09:56:35.014Z,98813.23
2018-10-12T10:17:13.633Z,98811.48
2018-10-12T10:37:51.400Z,98801.02
2018-10-12T10:58:28.163Z,98792.70
2018-10-12T11:19:10.293Z,98768.55
2018-10-12T11:39:48.272Z,98754.05
2018-10-12T12:00:28.831Z,98756.13
2018-10-12T12:21:06.809Z,98742.46
2018-10-12T12:41:49.200Z,98733.78
2018-10-12T13:02:28.407Z,98741.03
2018-10-12T13:41:10.269Z,98744.73
2018-10-12T14:01:50.461Z,98753.01
2018-10-12T14:22:29.104Z,98760.30
2018-10-12T14:43:08.065Z,98764.89
2018-10-12T15:03:46.414Z,98767.62
2018-10-12T15:24:22.604Z,98777.06
2018-10-12T15:45:04.032Z,98784.09
2018-10-12T16:05:43.281Z,98791.70
2018-10-12T16:26:25.623Z,98788.87
2018-10-12T16:47:08.883Z,98802.45
2018-10-12T17:07:51.221Z,98823.95
2018-10-12T17:28:36.329Z,98843.80
2018-10-12T17:49:14.715Z,98854.38
2018-10-12T18:09:58.344Z,98877.39
2018-10-12T18:30:33.211Z,98883.99
2018-10-12T18:51:11.544Z,98897.12
2018-10-12T19:11:50.812Z,98919.48
2018-10-12T19:32:32.391Z,98919.41
2018-10-12T19:53:17.026Z,98942.03
2018-10-12T20:13:53.835Z,98952.91
2018-10-12T20:34:37.092Z,98952.50
2018-10-12T20:55:17.289Z,98959.80
2018-10-12T21:15:56.545Z,98970.70
2018-10-12T21:36:35.811Z,98960.23
2018-10-12T21:57:15.078Z,98951.45
2018-10-12T22:17:56.494Z,98944.30
2018-10-12T22:38:35.929Z,98923.45
2018-10-12T22:59:16.562Z,98922.30
2018-10-12T23:19:58.284Z,98905.56
2018-10-12T23:40:35.404Z,98902.80
